createdAt,value
2019-01-03T10:45:55.325Z,3.80
2019-01-03T10:46:55.582Z,9.20
2019-01-03T10:47:55.897Z,11.50
2019-01-03T10:48:54.929Z,12.10
2019-01-03T10:51:15.482Z,20.60
2019-01-03T10:52:15.436Z,15.10
2019-01-03T10:53:15.389Z,14.50
2019-01-03T10:54:15.426Z,10.90
2019-01-03T10:55:15.373Z,12.00
2019-01-03T10:56:15.352Z,12.30
2019-01-03T11:00:17.762Z,10.40
2019-01-03T11:01:17.794Z,14.20
2019-01-03T11:02:17.728Z,12.90
2019-01-03T11:03:17.594Z,13.40
2019-01-03T11:04:20.463Z,13.80
2019-01-03T11:05:17.553Z,11.30
2019-01-03T11:06:17.614Z,11.80
2019-01-03T11:28:14.228Z,4.20
2019-01-03T11:29:14.072Z,8.80
2019-01-03T11:30:13.990Z,9.20
2019-01-03T11:31:14.191Z,9.60
2019-01-03T11:32:13.977Z,9.60
2019-01-03T11:33:13.791Z,10.20
2019-01-03T11:34:13.859Z,8.50
2019-01-03T11:39:03.453Z,9.40
2019-01-03T11:41:19.962Z,13.90
2019-01-03T11:43:31.719Z,11.30
2019-01-03T11:44:31.257Z,8.20
2019-01-03T11:49:13.878Z,6.30
2019-01-03T11:50:12.786Z,10.00
2019-01-03T12:24:54.285Z,9.70
2019-01-03T12:25:54.087Z,9.80
2019-01-03T12:35:58.779Z,12.10
2019-01-03T12:59:20.113Z,13.80
2019-01-03T13:00:19.347Z,7.30
2019-01-03T13:01:19.139Z,9.80
2019-01-03T13:02:19.117Z,8.60
2019-01-03T13:03:20.903Z,6.60
2019-01-03T13:04:19.102Z,8.90
2019-01-03T13:05:21.968Z,9.00
2019-01-03T13:13:50.097Z,11.10
2019-01-03T13:14:49.787Z,13.10
2019-01-03T13:15:50.199Z,11.00
2019-01-03T13:50:01.346Z,7.20
2019-01-03T14:36:07.555Z,8.30
2019-01-03T14:37:07.503Z,5.20
2019-01-03T14:38:07.630Z,15.80
2019-01-03T14:39:07.324Z,7.50
2019-01-03T14:40:07.335Z,5.70
2019-01-03T14:41:07.407Z,5.70
2019-01-03T14:47:52.594Z,4.60
2019-01-03T14:48:52.117Z,6.50
2019-01-03T14:49:52.098Z,7.90
2019-01-03T14:50:52.140Z,5.80
2019-01-03T14:51:51.990Z,8.60
2019-01-03T14:52:51.976Z,8.50
2019-01-03T14:53:51.937Z,5.90
2019-01-03T14:54:51.951Z,9.80
2019-01-03T14:55:51.864Z,7.30
2019-01-03T14:56:51.862Z,6.60
2019-01-03T14:57:51.851Z,5.40
2019-01-03T14:58:51.949Z,8.70
2019-01-03T14:59:51.915Z,6.30
2019-01-03T15:00:51.837Z,7.10
2019-01-03T15:01:51.799Z,9.00
2019-01-03T15:02:51.845Z,10.80
2019-01-03T15:03:51.774Z,7.80
2019-01-03T15:04:51.795Z,9.70
2019-01-03T15:05:51.808Z,7.80
2019-01-03T15:06:51.779Z,8.90
2019-01-03T15:07:51.743Z,8.90
2019-01-03T15:08:51.844Z,8.70
2019-01-03T15:09:51.853Z,8.80
2019-01-03T15:10:51.740Z,11.10
2019-01-03T15:11:51.723Z,11.30
2019-01-03T15:12:51.696Z,12.20
2019-01-03T15:14:44.702Z,10.90
2019-01-03T15:15:44.461Z,9.20
2019-01-03T15:16:44.351Z,10.40
2019-01-03T15:19:01.623Z,10.10
2019-01-03T15:20:01.218Z,9.00
2019-01-03T15:21:01.228Z,13.50
2019-01-03T15:22:01.052Z,10.00
2019-01-03T15:23:01.097Z,9.60
2019-01-03T15:24:02.282Z,10.40
2019-01-03T15:25:01.066Z,11.20
2019-01-03T15:26:01.070Z,8.30
2019-01-03T15:27:01.045Z,9.50
2019-01-03T15:28:01.033Z,8.60
2019-01-03T15:29:00.984Z,11.90
2019-01-03T15:30:01.005Z,8.30
2019-01-03T15:31:01.054Z,11.70
2019-01-03T15:32:00.977Z,8.70
2019-01-03T15:33:01.035Z,10.40
2019-01-03T15:34:00.962Z,10.80
2019-01-03T15:35:00.973Z,10.90
2019-01-03T15:36:00.950Z,12.10
2019-01-03T15:37:00.938Z,12.20
2019-01-03T15:38:00.903Z,10.30
2019-01-03T15:39:00.946Z,9.30
2019-01-03T15:40:00.874Z,13.70
2019-01-03T15:41:00.940Z,11.40
2019-01-03T15:42:00.954Z,10.50
2019-01-03T15:43:00.938Z,9.50
2019-01-03T15:44:00.866Z,10.80
2019-01-03T15:49:09.598Z,9.60
2019-01-03T15:50:09.583Z,9.60
2019-01-03T15:51:09.448Z,9.90
2019-01-03T15:52:09.357Z,10.90
2019-01-03T15:53:09.316Z,13.60
2019-01-03T15:54:09.286Z,9.20
2019-01-03T15:55:09.256Z,10.80
2019-01-03T15:56:09.250Z,9.90
2019-01-03T15:57:10.291Z,12.20
2019-01-03T15:58:09.219Z,11.70
2019-01-03T15:59:09.799Z,12.30
2019-01-03T16:00:09.162Z,13.30
2019-01-03T16:01:09.197Z,9.80
2019-01-03T16:02:09.119Z,8.50
2019-01-03T16:03:09.156Z,9.60
2019-01-03T16:04:09.263Z,10.10
2019-01-03T16:05:09.179Z,9.40
2019-01-03T16:06:09.319Z,13.50
2019-01-03T16:07:10.119Z,11.00
2019-01-03T16:08:10.698Z,14.00
2019-01-03T16:09:09.281Z,10.00
2019-01-03T16:10:09.148Z,9.90
2019-01-03T16:11:09.223Z,10.90
2019-01-03T16:14:08.513Z,15.30
2019-01-03T17:06:33.471Z,9.40
2019-01-03T21:17:46.180Z,8.30
2019-01-03T21:18:46.374Z,34.70
2019-01-03T21:19:47.199Z,32.40
2019-01-03T21:20:46.036Z,31.70
2019-01-03T21:27:07.411Z,24.00
2019-01-03T21:28:07.245Z,31.20
2019-01-03T21:29:07.231Z,38.20
2019-01-03T21:30:07.180Z,41.00
2019-01-03T21:31:07.143Z,33.30
2019-01-03T21:32:07.156Z,30.70
2019-01-03T21:33:07.170Z,33.10
2019-01-03T21:34:07.356Z,36.70
2019-01-03T21:35:06.957Z,33.10
2019-01-03T21:36:07.008Z,29.30
2019-01-03T21:37:07.038Z,30.00
2019-01-03T21:38:07.019Z,28.90
2019-01-03T21:39:06.977Z,29.30
2019-01-03T21:40:06.935Z,26.10
2019-01-03T21:41:06.923Z,28.50
2019-01-03T21:42:06.951Z,28.40
2019-01-03T21:43:06.982Z,30.00
2019-01-03T22:24:47.841Z,21.60
2019-01-03T22:25:46.840Z,27.80
2019-01-03T22:29:25.599Z,26.90
2019-01-03T22:30:25.408Z,29.70
2019-01-03T22:31:25.325Z,28.70
2019-01-03T22:32:25.374Z,24.50
2019-01-03T22:33:25.240Z,24.90
2019-01-03T22:34:25.336Z,26.60
2019-01-03T22:35:25.326Z,25.80
2019-01-03T22:36:25.242Z,27.60
2019-01-03T22:37:25.206Z,30.00
2019-01-03T22:38:25.208Z,29.90
2019-01-03T22:39:25.147Z,37.00
2019-01-03T22:40:25.228Z,35.80
2019-01-03T22:41:25.169Z,34.40
2019-01-03T22:42:25.155Z,33.40
2019-01-03T22:43:25.119Z,33.30
2019-01-03T22:44:25.172Z,37.20
2019-01-03T22:45:25.098Z,39.30
2019-01-03T22:46:25.112Z,39.50
2019-01-03T22:47:25.114Z,37.10
2019-01-03T22:48:25.087Z,39.30
2019-01-03T22:49:25.107Z,40.90
2019-01-03T22:50:25.039Z,39.60
2019-01-03T22:51:25.020Z,35.40
2019-01-03T22:52:25.082Z,34.80
2019-01-03T22:53:25.008Z,36.10
2019-01-03T22:54:25.009Z,33.60
2019-01-03T22:55:25.035Z,35.00
2019-01-03T22:56:24.970Z,35.00
2019-01-03T22:57:25.025Z,32.50
2019-01-03T22:58:24.979Z,35.20
2019-01-03T22:59:25.007Z,35.90
2019-01-03T23:00:24.928Z,35.50
2019-01-03T23:01:25.127Z,31.50
2019-01-03T23:02:24.917Z,34.10
2019-01-03T23:03:24.973Z,32.80
2019-01-03T23:04:24.881Z,31.60
2019-01-03T23:05:24.926Z,33.30
2019-01-03T23:06:24.872Z,33.00
2019-01-03T23:07:24.929Z,34.60
2019-01-03T23:08:24.870Z,33.10
2019-01-03T23:09:24.838Z,31.20
2019-01-03T23:10:24.875Z,31.10
2019-01-03T23:11:24.851Z,32.40
2019-01-03T23:12:24.837Z,29.20
2019-01-03T23:13:24.829Z,33.20
2019-01-03T23:14:24.809Z,36.20
2019-01-03T23:15:24.780Z,32.20
2019-01-03T23:16:24.787Z,31.70
2019-01-03T23:17:24.746Z,40.50
2019-01-03T23:18:31.364Z,37.40
2019-01-03T23:19:25.814Z,36.80
2019-01-03T23:20:24.715Z,40.90
2019-01-03T23:21:24.707Z,39.10
2019-01-03T23:22:24.743Z,46.00
2019-01-03T23:23:24.708Z,41.20
2019-01-03T23:24:24.671Z,42.80
2019-01-03T23:25:24.716Z,42.50
2019-01-03T23:26:24.679Z,43.40
2019-01-03T23:27:24.648Z,43.10
2019-01-03T23:28:24.710Z,43.00
2019-01-03T23:29:24.659Z,37.60
2019-01-03T23:30:24.613Z,40.50
2019-01-03T23:31:24.634Z,39.30
2019-01-03T23:32:24.584Z,41.00
2019-01-03T23:33:24.688Z,38.90
2019-01-03T23:34:28.123Z,41.70
2019-01-03T23:35:24.577Z,40.70
2019-01-03T23:36:24.545Z,41.90
2019-01-03T23:37:24.615Z,38.20
2019-01-03T23:38:24.519Z,44.30
2019-01-03T23:39:24.564Z,43.60
2019-01-03T23:40:24.555Z,36.40
2019-01-03T23:41:24.510Z,47.00
2019-01-03T23:42:24.491Z,38.00
2019-01-03T23:43:24.531Z,43.60
2019-01-03T23:44:24.530Z,44.50
2019-01-03T23:45:24.460Z,41.00
2019-01-03T23:46:24.445Z,47.90
2019-01-03T23:47:24.428Z,39.60
2019-01-03T23:48:24.460Z,38.60
2019-01-03T23:49:24.443Z,34.30
2019-01-03T23:50:24.401Z,38.40
2019-01-03T23:51:24.390Z,38.60
2019-01-03T23:52:24.381Z,39.00
2019-01-03T23:53:24.370Z,36.00
2019-01-03T23:54:24.359Z,39.30
2019-01-03T23:55:24.363Z,34.10
2019-01-03T23:56:24.333Z,40.80
2019-01-03T23:57:24.326Z,40.60
2019-01-03T23:58:24.354Z,38.50
2019-01-03T23:59:24.320Z,49.60
